Time;durP1;ratioP1;P1;durP2;ratioP2;P2;SDS_P1;SDS_P2;PMS_P1;PMS_P2;Temp;Humidity;BMP_temperature;BMP_pressure;BME280_temperature;BME280_humidity;BME280_pressure;Samples;Min_cycle;Max_cycle;Signal;HPM_P1;HPM_P2
2022/01/05 00:02:11;;;;;;;4.18;2.03;;;;;;;;;;5093258;28;20036;-70
2022/01/05 00:04:37;;;;;;;4.22;2.38;;;;;;;;;;5092625;28;20028;-70
2022/01/05 00:07:04;;;;;;;4.95;2.40;;;;;;;;;;5082043;28;20036;-70
2022/01/05 00:09:30;;;;;;;4.30;2.83;;;;;;;;;;5073223;28;20390;-71
2022/01/05 00:11:56;;;;;;;5.55;2.50;;;;;;;;;;5055553;28;20020;-72
2022/01/05 00:14:22;;;;;;;5.13;2.42;;;;;;;;;;5072281;28;20561;-70
2022/01/05 00:16:48;;;;;;;3.45;2.20;;;;;;;;;;5054731;28;20016;-70
2022/01/05 00:19:14;;;;;;;3.10;2.00;;;;;;;;;;5073060;28;20146;-70
2022/01/05 00:21:40;;;;;;;2.30;2.10;;;;;;;;;;5072966;28;20025;-71
2022/01/05 00:24:07;;;;;;;3.15;1.85;;;;;;;;;;5054609;28;20031;-70
2022/01/05 00:26:33;;;;;;;2.60;1.80;;;;;;;;;;5072777;28;20417;-71
2022/01/05 00:28:59;;;;;;;2.50;1.88;;;;;;;;;;5072912;28;20025;-71
2022/01/05 00:31:25;;;;;;;3.22;1.80;;;;;;;;;;5072827;28;20023;-71
2022/01/05 00:33:51;;;;;;;2.42;1.50;;;;;;;;;;5071866;28;20048;-70
2022/01/05 00:36:17;;;;;;;2.83;1.50;;;;;;;;;;5072173;28;20021;-71
2022/01/05 00:38:43;;;;;;;2.72;1.77;;;;;;;;;;5072536;28;20025;-71
2022/01/05 00:41:09;;;;;;;3.70;1.60;;;;;;;;;;5078549;28;20031;-71
2022/01/05 00:43:35;;;;;;;2.10;1.67;;;;;;;;;;5091877;28;20028;-70
2022/01/05 00:46:01;;;;;;;2.17;1.58;;;;;;;;;;5092340;28;20028;-70
2022/01/05 00:48:29;;;;;;;1.95;1.15;;;;;;;;;;5092194;28;20508;-71
2022/01/05 00:50:58;;;;;;;1.30;1.20;;;;;;;;;;5091246;28;20020;-71
2022/01/05 00:53:24;;;;;;;1.75;1.00;;;;;;;;;;5091655;28;20024;-70
2022/01/05 00:55:49;;;;;;;1.85;1.25;;;;;;;;;;5074156;28;20023;-70
2022/01/05 00:58:18;;;;;;;2.03;1.10;;;;;;;;;;5092493;28;20032;-70
2022/01/05 01:00:44;;;;;;;2.20;1.33;;;;;;;;;;5092217;28;20470;-70
2022/01/05 01:03:10;;;;;;;2.83;1.00;;;;;;;;;;5091299;28;20104;-71
2022/01/05 01:05:36;;;;;;;1.58;0.90;;;;;;;;;;5092317;28;20535;-71
2022/01/05 01:08:02;;;;;;;3.65;1.30;;;;;;;;;;5091828;28;20481;-71
2022/01/05 01:10:28;;;;;;;2.00;1.20;;;;;;;;;;5092020;28;20452;-71
2022/01/05 01:12:54;;;;;;;1.00;0.90;;;;;;;;;;5091833;28;20020;-71
2022/01/05 01:15:20;;;;;;;1.63;1.20;;;;;;;;;;5092003;28;20024;-71
2022/01/05 01:17:46;;;;;;;1.48;0.98;;;;;;;;;;5091883;28;20458;-71
2022/01/05 01:20:12;;;;;;;2.58;1.13;;;;;;;;;;5092036;28;20115;-71
2022/01/05 01:22:38;;;;;;;1.85;1.23;;;;;;;;;;5092040;28;20024;-72
2022/01/05 01:25:07;;;;;;;2.33;1.17;;;;;;;;;;5073130;28;20025;-71
2022/01/05 01:27:37;;;;;;;1.63;1.13;;;;;;;;;;5091855;28;20024;-71
2022/01/05 01:30:03;;;;;;;1.58;1.08;;;;;;;;;;5074220;28;20439;-71
2022/01/05 01:32:29;;;;;;;1.48;1.10;;;;;;;;;;5091573;28;20407;-71
2022/01/05 01:34:55;;;;;;;1.45;1.25;;;;;;;;;;5073155;28;20016;-71
2022/01/05 01:37:21;;;;;;;1.20;0.80;;;;;;;;;;5091859;28;20529;-71
2022/01/05 01:39:47;;;;;;;3.13;1.10;;;;;;;;;;5073594;28;20489;-71
2022/01/05 01:42:15;;;;;;;1.23;1.00;;;;;;;;;;5091508;28;20028;-71
2022/01/05 01:44:41;;;;;;;1.02;0.95;;;;;;;;;;5090997;28;20089;-70
2022/01/05 01:47:07;;;;;;;1.08;0.98;;;;;;;;;;5091263;28;20485;-71
2022/01/05 01:49:33;;;;;;;2.20;0.80;;;;;;;;;;5091564;28;20385;-71
2022/01/05 01:51:59;;;;;;;0.75;0.75;;;;;;;;;;5091541;28;20023;-72
2022/01/05 01:54:26;;;;;;;0.88;0.68;;;;;;;;;;5090802;28;20024;-71
2022/01/05 01:56:52;;;;;;;1.52;0.90;;;;;;;;;;5091538;28;20028;-71
2022/01/05 01:59:18;;;;;;;1.23;1.00;;;;;;;;;;5091561;28;20024;-72
2022/01/05 02:01:44;;;;;;;0.98;0.90;;;;;;;;;;5093259;28;20024;-70
2022/01/05 02:04:10;;;;;;;0.90;0.90;;;;;;;;;;5095033;28;20024;-71
2022/01/05 02:06:36;;;;;;;0.80;0.55;;;;;;;;;;5095732;28;20024;-71
2022/01/05 02:09:04;;;;;;;0.82;0.80;;;;;;;;;;5095671;28;20024;-71
2022/01/05 02:11:31;;;;;;;0.85;0.60;;;;;;;;;;5095468;28;20027;-71
2022/01/05 02:13:57;;;;;;;2.10;1.02;;;;;;;;;;5076520;28;20028;-71
2022/01/05 02:16:31;;;;;;;0.95;0.68;;;;;;;;;;5095077;28;20027;-71
2022/01/05 02:19:00;;;;;;;1.23;0.70;;;;;;;;;;5095531;28;20047;-71
2022/01/05 02:21:27;;;;;;;0.98;0.88;;;;;;;;;;5095674;28;20020;-71
2022/01/05 02:23:53;;;;;;;0.95;0.85;;;;;;;;;;5094650;28;20028;-71
2022/01/05 02:26:19;;;;;;;1.42;1.33;;;;;;;;;;5095060;28;20069;-71
2022/01/05 02:28:45;;;;;;;1.30;1.00;;;;;;;;;;5094983;28;20405;-71
2022/01/05 02:31:11;;;;;;;1.63;1.00;;;;;;;;;;5095209;28;20031;-71
2022/01/05 02:33:39;;;;;;;1.52;0.90;;;;;;;;;;5094424;28;20024;-70
2022/01/05 02:36:05;;;;;;;1.13;1.02;;;;;;;;;;5094987;28;20025;-71
2022/01/05 02:38:31;;;;;;;1.88;0.88;;;;;;;;;;5076856;28;20115;-70
2022/01/05 02:41:04;;;;;;;0.77;0.50;;;;;;;;;;5095366;28;20344;-71
2022/01/05 02:43:30;;;;;;;1.25;0.98;;;;;;;;;;5094112;28;20035;-69
2022/01/05 02:45:56;;;;;;;0.68;0.65;;;;;;;;;;5095066;28;20024;-70
2022/01/05 02:48:22;;;;;;;0.50;0.50;;;;;;;;;;5094565;28;20067;-70
2022/01/05 02:50:48;;;;;;;1.00;0.90;;;;;;;;;;5094724;28;20161;-70
2022/01/05 02:53:14;;;;;;;0.77;0.68;;;;;;;;;;5093915;28;20020;-69
2022/01/05 02:55:40;;;;;;;1.15;0.80;;;;;;;;;;5094528;28;20107;-71
2022/01/05 02:58:06;;;;;;;0.85;0.50;;;;;;;;;;5094521;28;20023;-70
2022/01/05 03:00:31;;;;;;;1.65;1.25;;;;;;;;;;5076269;28;20509;-70
2022/01/05 03:02:57;;;;;;;1.00;0.70;;;;;;;;;;5094214;28;20530;-71
2022/01/05 03:05:23;;;;;;;0.75;0.63;;;;;;;;;;5076113;28;20056;-71
2022/01/05 03:07:49;;;;;;;1.63;0.60;;;;;;;;;;5072800;28;20056;-71
2022/01/05 03:10:15;;;;;;;0.90;0.80;;;;;;;;;;5073922;28;20013;-71
2022/01/05 03:12:42;;;;;;;0.95;0.60;;;;;;;;;;5072636;28;20094;-70
2022/01/05 03:15:09;;;;;;;0.82;0.68;;;;;;;;;;5073551;28;20024;-71
2022/01/05 03:17:35;;;;;;;1.58;0.80;;;;;;;;;;5073916;28;20024;-70
2022/01/05 03:20:01;;;;;;;0.93;0.70;;;;;;;;;;5074252;28;20423;-70
2022/01/05 03:22:27;;;;;;;0.50;0.50;;;;;;;;;;5073889;28;20025;-69
2022/01/05 03:24:53;;;;;;;1.08;0.52;;;;;;;;;;5073050;28;20040;-70
2022/01/05 03:27:19;;;;;;;0.68;0.50;;;;;;;;;;5073806;28;20024;-71
2022/01/05 03:29:45;;;;;;;1.23;0.43;;;;;;;;;;5073660;28;20446;-70
2022/01/05 03:32:11;;;;;;;1.13;0.75;;;;;;;;;;5073690;28;20016;-69
2022/01/05 03:34:38;;;;;;;1.77;0.40;;;;;;;;;;5072869;28;20393;-71
2022/01/05 03:37:04;;;;;;;0.52;0.40;;;;;;;;;;5073604;28;20141;-71
2022/01/05 03:39:30;;;;;;;0.68;0.50;;;;;;;;;;5073391;28;20067;-71
2022/01/05 03:41:56;;;;;;;3.72;0.30;;;;;;;;;;5086272;28;20028;-71
2022/01/05 03:44:22;;;;;;;0.40;0.30;;;;;;;;;;5092693;28;20122;-71
2022/01/05 03:46:48;;;;;;;2.30;0.63;;;;;;;;;;5074569;28;20474;-69
2022/01/05 03:49:14;;;;;;;0.73;0.40;;;;;;;;;;5074568;28;20443;-72
2022/01/05 03:51:40;;;;;;;1.65;0.70;;;;;;;;;;5092739;28;20012;-71
2022/01/05 03:54:06;;;;;;;2.03;1.25;;;;;;;;;;5073647;28;20031;-70
2022/01/05 03:56:32;;;;;;;1.20;0.68;;;;;;;;;;5093695;28;20099;-71
2022/01/05 03:58:58;;;;;;;0.55;0.40;;;;;;;;;;5093374;28;20493;-71
2022/01/05 04:01:23;;;;;;;0.30;0.30;;;;;;;;;;5093330;28;20016;-71
2022/01/05 04:03:49;;;;;;;0.38;0.20;;;;;;;;;;5074545;28;20150;-70
2022/01/05 04:06:15;;;;;;;0.20;0.10;;;;;;;;;;5093053;28;20047;-71
2022/01/05 04:08:41;;;;;;;1.52;0.60;;;;;;;;;;5092847;28;20154;-70
2022/01/05 04:11:07;;;;;;;0.38;0.30;;;;;;;;;;5093138;28;20508;-71
2022/01/05 04:13:33;;;;;;;2.03;0.90;;;;;;;;;;5092158;28;20498;-71
2022/01/05 04:15:59;;;;;;;1.90;1.30;;;;;;;;;;5092974;28;20020;-71
2022/01/05 04:18:25;;;;;;;0.60;0.20;;;;;;;;;;5092906;28;20020;-71
2022/01/05 04:20:51;;;;;;;1.40;0.60;;;;;;;;;;5092844;28;20404;-70
2022/01/05 04:23:18;;;;;;;0.20;0.20;;;;;;;;;;5092113;28;20027;-71
2022/01/05 04:25:44;;;;;;;0.95;0.30;;;;;;;;;;5092670;28;20034;-70
2022/01/05 04:28:10;;;;;;;0.22;0.20;;;;;;;;;;5092456;28;20099;-71
2022/01/05 04:30:37;;;;;;;0.70;0.20;;;;;;;;;;5092855;28;20046;-70
2022/01/05 04:33:03;;;;;;;0.38;0.30;;;;;;;;;;5092183;28;20103;-70
2022/01/05 04:35:29;;;;;;;1.58;0.40;;;;;;;;;;5092571;28;20027;-70
2022/01/05 04:37:55;;;;;;;1.67;0.30;;;;;;;;;;5092467;28;20405;-70
2022/01/05 04:40:21;;;;;;;0.10;0.10;;;;;;;;;;5092512;28;20056;-71
2022/01/05 04:42:47;;;;;;;0.22;0.22;;;;;;;;;;5091846;28;20126;-70
2022/01/05 04:45:13;;;;;;;0.93;0.30;;;;;;;;;;5092479;28;20493;-70
2022/01/05 04:47:39;;;;;;;0.35;0.20;;;;;;;;;;5093470;28;20031;-71
2022/01/05 04:50:05;;;;;;;2.60;1.15;;;;;;;;;;5092421;28;20032;-70
2022/01/05 04:52:31;;;;;;;1.23;0.40;;;;;;;;;;5091933;28;20020;-71
2022/01/05 04:54:57;;;;;;;0.68;0.45;;;;;;;;;;5091897;28;20017;-71
2022/01/05 04:57:23;;;;;;;0.30;0.30;;;;;;;;;;5092441;28;20063;-71
2022/01/05 04:59:49;;;;;;;0.98;0.43;;;;;;;;;;5092332;28;20035;-70
2022/01/05 05:02:15;;;;;;;1.15;0.10;;;;;;;;;;5092136;28;20050;-70
2022/01/05 05:04:41;;;;;;;0.38;0.20;;;;;;;;;;5091314;28;20492;-70
2022/01/05 05:07:07;;;;;;;0.00;0.00;;;;;;;;;;5091738;28;20405;-70
2022/01/05 05:09:33;;;;;;;0.10;0.10;;;;;;;;;;5092138;28;20020;-70
2022/01/05 05:11:59;;;;;;;0.52;0.30;;;;;;;;;;5092051;28;20024;-70
2022/01/05 05:14:25;;;;;;;0.32;0.13;;;;;;;;;;5090885;28;20077;-69
2022/01/05 05:16:51;;;;;;;0.30;0.20;;;;;;;;;;5091496;28;20012;-70
2022/01/05 05:19:17;;;;;;;1.85;0.35;;;;;;;;;;5091957;28;20024;-71
2022/01/05 05:21:43;;;;;;;0.40;0.30;;;;;;;;;;5091767;28;20024;-70
2022/01/05 05:24:12;;;;;;;0.75;0.30;;;;;;;;;;5072859;28;20116;-71
2022/01/05 05:26:38;;;;;;;0.38;0.30;;;;;;;;;;5091676;28;20023;-71
2022/01/05 05:29:04;;;;;;;0.13;0.10;;;;;;;;;;5091833;28;20303;-70
2022/01/05 05:31:30;;;;;;;0.65;0.38;;;;;;;;;;5073488;28;20024;-70
2022/01/05 05:33:56;;;;;;;2.22;1.20;;;;;;;;;;5090835;28;20028;-70
2022/01/05 05:36:22;;;;;;;4.60;2.40;;;;;;;;;;5090551;28;20060;-70
2022/01/05 05:38:50;;;;;;;8.75;2.75;;;;;;;;;;5073365;28;20024;-70
2022/01/05 05:41:16;;;;;;;2.20;1.40;;;;;;;;;;5088376;28;20566;-69
2022/01/05 05:43:42;;;;;;;4.68;1.80;;;;;;;;;;5090706;28;20063;-70
2022/01/05 05:46:08;;;;;;;2.78;2.00;;;;;;;;;;5091642;28;20153;-72
2022/01/05 05:48:34;;;;;;;3.22;1.90;;;;;;;;;;5091813;28;20471;-69
2022/01/05 05:51:00;;;;;;;4.45;1.63;;;;;;;;;;5091512;28;20101;-70
2022/01/05 05:53:26;;;;;;;2.78;1.40;;;;;;;;;;5090566;28;20024;-70
2022/01/05 05:55:52;;;;;;;1.88;1.10;;;;;;;;;;5091349;28;20108;-71
2022/01/05 05:58:18;;;;;;;2.75;1.08;;;;;;;;;;5073111;28;20028;-71
2022/01/05 06:00:44;;;;;;;6.90;1.00;;;;;;;;;;5091225;28;20020;-70
2022/01/05 06:03:10;;;;;;;2.72;0.82;;;;;;;;;;5090522;28;20107;-70
2022/01/05 06:05:36;;;;;;;1.10;0.70;;;;;;;;;;5091436;28;20075;-69
2022/01/05 06:08:02;;;;;;;2.47;0.90;;;;;;;;;;5091165;28;20028;-71
2022/01/05 06:10:28;;;;;;;2.72;1.02;;;;;;;;;;5091565;28;20466;-70
2022/01/05 06:12:54;;;;;;;1.13;1.02;;;;;;;;;;5091027;28;20024;-70
2022/01/05 06:15:20;;;;;;;1.60;1.15;;;;;;;;;;5090791;28;20032;-70
2022/01/05 06:17:46;;;;;;;4.15;1.33;;;;;;;;;;5090744;28;20113;-70
2022/01/05 06:20:12;;;;;;;5.75;1.38;;;;;;;;;;5091070;28;20063;-70
2022/01/05 06:22:42;;;;;;;2.30;1.95;;;;;;;;;;5091071;28;20024;-68
2022/01/05 06:25:09;;;;;;;3.92;1.63;;;;;;;;;;5090756;28;20496;-72
2022/01/05 06:27:35;;;;;;;3.08;1.88;;;;;;;;;;5090843;28;20045;-70
2022/01/05 06:30:06;;;;;;;3.55;2.33;;;;;;;;;;5090585;28;20502;-71
2022/01/05 06:32:33;;;;;;;5.35;3.15;;;;;;;;;;5090384;28;20016;-71
2022/01/05 06:34:59;;;;;;;5.85;2.75;;;;;;;;;;5089547;28;20381;-70
2022/01/05 06:37:25;;;;;;;4.50;2.40;;;;;;;;;;5090363;28;20016;-71
2022/01/05 06:39:51;;;;;;;5.55;2.97;;;;;;;;;;5090890;28;20028;-70
2022/01/05 06:42:17;;;;;;;7.93;4.43;;;;;;;;;;5090670;28;20467;-70
2022/01/05 06:44:43;;;;;;;11.52;5.20;;;;;;;;;;5090078;28;20077;-71
2022/01/05 06:47:10;;;;;;;8.90;4.88;;;;;;;;;;5091143;28;20560;-70
2022/01/05 06:49:36;;;;;;;9.93;5.28;;;;;;;;;;5094248;28;20020;-70
2022/01/05 06:52:02;;;;;;;9.50;5.18;;;;;;;;;;5094301;28;20075;-71
2022/01/05 06:54:29;;;;;;;11.60;5.35;;;;;;;;;;5093473;28;20043;-70
2022/01/05 06:56:55;;;;;;;11.38;5.55;;;;;;;;;;5094204;28;20099;-70
2022/01/05 06:59:21;;;;;;;9.38;4.88;;;;;;;;;;5094434;28;20023;-70
2022/01/05 07:01:48;;;;;;;10.95;5.68;;;;;;;;;;5076280;28;20462;-70
2022/01/05 07:04:14;;;;;;;9.93;5.68;;;;;;;;;;5093939;28;20066;-69
2022/01/05 07:06:40;;;;;;;9.63;5.97;;;;;;;;;;5094406;28;20045;-70
2022/01/05 07:09:06;;;;;;;8.40;5.35;;;;;;;;;;5094124;28;20032;-70
2022/01/05 07:11:32;;;;;;;10.98;5.20;;;;;;;;;;5074159;28;20035;-71
2022/01/05 07:13:58;;;;;;;10.68;4.90;;;;;;;;;;5075148;28;20174;-71
2022/01/05 07:16:25;;;;;;;5.90;3.92;;;;;;;;;;5093691;28;20024;-71
2022/01/05 07:18:51;;;;;;;12.20;4.05;;;;;;;;;;5075418;28;20098;-71
2022/01/05 07:21:17;;;;;;;7.95;4.72;;;;;;;;;;5093924;28;20028;-71
2022/01/05 07:23:43;;;;;;;8.50;4.80;;;;;;;;;;5093419;28;20111;-71
2022/01/05 07:26:09;;;;;;;6.95;4.00;;;;;;;;;;5093988;28;20035;-72
2022/01/05 07:28:35;;;;;;;10.70;4.18;;;;;;;;;;5093617;28;20028;-71
2022/01/05 07:31:01;;;;;;;11.88;5.65;;;;;;;;;;5093721;28;20028;-72
2022/01/05 07:33:28;;;;;;;6.30;3.83;;;;;;;;;;5092937;28;20024;-72
2022/01/05 07:35:54;;;;;;;7.97;4.10;;;;;;;;;;5093900;28;20036;-70
2022/01/05 07:38:20;;;;;;;10.15;4.20;;;;;;;;;;5093419;28;20020;-71
2022/01/05 07:40:46;;;;;;;8.73;3.28;;;;;;;;;;5093098;28;20029;-73
2022/01/05 07:43:12;;;;;;;6.18;3.50;;;;;;;;;;5093153;28;20024;-72
2022/01/05 07:45:38;;;;;;;6.68;2.40;;;;;;;;;;5093695;28;20451;-71
2022/01/05 07:48:04;;;;;;;5.72;2.08;;;;;;;;;;5093493;28;20382;-71
2022/01/05 07:50:30;;;;;;;6.95;2.83;;;;;;;;;;5093888;28;20461;-73
2022/01/05 07:53:00;;;;;;;5.53;2.15;;;;;;;;;;5074913;28;20482;-72
2022/01/05 07:55:27;;;;;;;5.07;2.72;;;;;;;;;;5093392;28;20016;-71
2022/01/05 07:57:52;;;;;;;5.65;2.30;;;;;;;;;;5092983;28;20449;-70
2022/01/05 08:00:19;;;;;;;4.55;2.10;;;;;;;;;;5092366;28;20031;-72
2022/01/05 08:02:45;;;;;;;8.43;2.33;;;;;;;;;;5092314;28;20466;-69
2022/01/05 08:05:10;;;;;;;4.32;2.03;;;;;;;;;;5092551;28;20024;-70
2022/01/05 08:07:37;;;;;;;6.15;2.20;;;;;;;;;;5092814;28;20039;-70
2022/01/05 08:10:03;;;;;;;8.35;2.20;;;;;;;;;;5092572;28;20059;-70
2022/01/05 08:12:29;;;;;;;2.58;1.50;;;;;;;;;;5074829;28;20021;-71
2022/01/05 08:14:55;;;;;;;5.95;1.88;;;;;;;;;;5092218;28;20039;-71
2022/01/05 08:17:21;;;;;;;2.53;1.90;;;;;;;;;;5093101;28;20406;-71
2022/01/05 08:19:47;;;;;;;3.10;1.35;;;;;;;;;;5092750;28;20034;-70
2022/01/05 08:22:13;;;;;;;5.40;1.65;;;;;;;;;;5092767;28;20020;-71
2022/01/05 08:24:39;;;;;;;6.35;1.77;;;;;;;;;;5092082;28;20020;-71
2022/01/05 08:27:05;;;;;;;3.70;1.63;;;;;;;;;;5092621;28;20020;-70
2022/01/05 08:29:31;;;;;;;2.92;1.58;;;;;;;;;;5092439;28;20028;-70
2022/01/05 08:32:02;;;;;;;6.97;2.28;;;;;;;;;;5092961;28;20035;-70
2022/01/05 08:34:28;;;;;;;4.90;2.40;;;;;;;;;;5092990;28;20103;-69
2022/01/05 08:36:54;;;;;;;3.72;1.98;;;;;;;;;;5092784;28;20303;-70
2022/01/05 08:39:22;;;;;;;3.42;1.67;;;;;;;;;;5092328;28;20020;-71
2022/01/05 08:41:48;;;;;;;3.97;1.60;;;;;;;;;;5092514;28;20059;-73
2022/01/05 08:44:14;;;;;;;3.97;1.60;;;;;;;;;;5091741;28;20065;-71
2022/01/05 08:46:40;;;;;;;5.47;2.05;;;;;;;;;;5092300;28;20031;-70
2022/01/05 08:49:06;;;;;;;6.38;1.90;;;;;;;;;;5092423;28;20024;-71
2022/01/05 08:51:32;;;;;;;5.50;2.17;;;;;;;;;;5092224;28;20031;-71
2022/01/05 08:53:58;;;;;;;4.55;1.48;;;;;;;;;;5091690;28;20474;-70
2022/01/05 08:56:25;;;;;;;5.93;1.52;;;;;;;;;;5092053;28;20028;-71
2022/01/05 08:58:51;;;;;;;4.05;1.67;;;;;;;;;;5091920;28;20028;-71
2022/01/05 09:01:17;;;;;;;2.90;1.58;;;;;;;;;;5073993;28;20051;-71
2022/01/05 09:03:43;;;;;;;5.03;1.70;;;;;;;;;;5091537;28;20481;-71
2022/01/05 09:06:09;;;;;;;4.93;2.10;;;;;;;;;;5074003;28;20024;-71
2022/01/05 09:08:37;;;;;;;7.22;1.60;;;;;;;;;;5091984;28;20056;-71
2022/01/05 09:11:03;;;;;;;3.22;1.95;;;;;;;;;;5091400;28;20035;-71
2022/01/05 09:13:29;;;;;;;6.18;1.58;;;;;;;;;;5091248;28;20440;-71
2022/01/05 09:15:55;;;;;;;3.08;1.45;;;;;;;;;;5092368;28;20566;-72
2022/01/05 09:18:21;;;;;;;3.53;1.77;;;;;;;;;;5092569;28;20032;-71
2022/01/05 09:20:47;;;;;;;5.35;1.73;;;;;;;;;;5092273;28;20051;-71
2022/01/05 09:23:13;;;;;;;6.47;1.45;;;;;;;;;;5091298;28;20151;-70
2022/01/05 09:25:39;;;;;;;3.55;1.98;;;;;;;;;;5074058;28;20031;-71
2022/01/05 09:28:05;;;;;;;4.43;1.42;;;;;;;;;;5091418;28;20024;-71
2022/01/05 09:30:31;;;;;;;5.88;1.38;;;;;;;;;;5092394;28;20074;-70
2022/01/05 09:32:58;;;;;;;3.72;1.65;;;;;;;;;;5091654;28;20098;-70
2022/01/05 09:35:25;;;;;;;5.93;1.63;;;;;;;;;;5073586;28;20024;-70
2022/01/05 09:43:12;;;;;;;5.95;1.67;;;;;;;;;;5091344;28;20512;-70
2022/01/05 09:45:39;;;;;;;3.53;1.50;;;;;;;;;;5091337;28;20032;-68
2022/01/05 09:48:18;;;;;;;7.10;1.88;;;;;;;;;;5091462;28;20032;-69
2022/01/05 09:51:06;;;;;;;5.25;1.75;;;;;;;;;;5091554;28;20043;-70
2022/01/05 09:53:33;;;;;;;7.50;1.80;;;;;;;;;;5091235;28;20021;-71
2022/01/05 09:55:59;;;;;;;4.97;1.38;;;;;;;;;;5091871;28;20020;-71
2022/01/05 09:58:25;;;;;;;2.60;1.40;;;;;;;;;;5091778;28;20073;-71
2022/01/05 10:00:52;;;;;;;2.63;1.60;;;;;;;;;;5091329;28;20516;-72
2022/01/05 10:03:18;;;;;;;3.13;1.67;;;;;;;;;;5088942;28;20020;-72
2022/01/05 10:05:44;;;;;;;3.50;1.40;;;;;;;;;;5090464;28;20032;-72
2022/01/05 10:08:11;;;;;;;2.30;1.55;;;;;;;;;;5090226;28;20028;-71
2022/01/05 10:10:37;;;;;;;6.97;1.70;;;;;;;;;;5091068;28;20066;-71
2022/01/05 10:13:03;;;;;;;5.80;1.83;;;;;;;;;;5072006;28;20028;-71
2022/01/05 10:15:29;;;;;;;4.97;1.45;;;;;;;;;;5090629;28;20020;-71
2022/01/05 10:18:15;;;;;;;4.45;1.67;;;;;;;;;;5090834;28;20031;-71
2022/01/05 10:20:54;;;;;;;4.70;1.65;;;;;;;;;;5073074;28;20046;-70
2022/01/05 10:23:41;;;;;;;7.05;1.67;;;;;;;;;;5093297;28;20074;-71
2022/01/05 10:26:23;;;;;;;6.32;1.70;;;;;;;;;;5094748;28;20024;-71
2022/01/05 10:28:49;;;;;;;5.47;1.60;;;;;;;;;;5074868;28;20060;-71
2022/01/05 10:31:16;;;;;;;6.13;1.90;;;;;;;;;;5093192;28;20027;-71
2022/01/05 10:33:42;;;;;;;6.20;2.17;;;;;;;;;;5092193;28;20440;-70
2022/01/05 10:36:08;;;;;;;11.80;1.80;;;;;;;;;;5092661;28;20095;-70
2022/01/05 10:38:34;;;;;;;4.43;1.90;;;;;;;;;;5092818;28;20531;-71
2022/01/05 10:41:14;;;;;;;8.10;2.63;;;;;;;;;;5093116;28;20042;-70
2022/01/05 10:44:00;;;;;;;7.20;2.47;;;;;;;;;;5093985;28;20074;-70
2022/01/05 10:46:35;;;;;;;9.27;2.90;;;;;;;;;;5095671;28;20036;-71
2022/01/05 10:49:04;;;;;;;6.97;2.20;;;;;;;;;;5094890;28;20085;-70
2022/01/05 10:51:30;;;;;;;8.82;3.13;;;;;;;;;;5094206;28;20031;-71
2022/01/05 10:54:11;;;;;;;7.90;2.83;;;;;;;;;;5075554;28;20031;-70
2022/01/05 10:56:37;;;;;;;;;;;;;;;;;;5093596;28;20482;-70
2022/01/05 10:59:03;;;;;;;6.55;2.22;;;;;;;;;;5094067;28;19912;-71
2022/01/05 11:01:30;;;;;;;7.38;2.50;;;;;;;;;;5092864;28;20238;-71
2022/01/05 11:03:56;;;;;;;4.90;2.40;;;;;;;;;;5093709;28;20059;-70
2022/01/05 11:06:22;;;;;;;7.25;1.98;;;;;;;;;;5093090;28;20062;-70
2022/01/05 11:08:51;;;;;;;7.63;2.70;;;;;;;;;;5093854;28;20035;-71
2022/01/05 11:11:35;;;;;;;11.98;2.58;;;;;;;;;;5094211;28;20021;-71
2022/01/05 11:14:01;;;;;;;8.38;2.17;;;;;;;;;;5093120;28;20107;-70
2022/01/05 11:16:28;;;;;;;9.55;2.45;;;;;;;;;;5093733;28;20077;-70
2022/01/05 11:19:11;;;;;;;7.50;2.03;;;;;;;;;;5094939;28;20028;-70
2022/01/05 11:21:54;;;;;;;8.13;2.20;;;;;;;;;;5095192;28;20027;-71
2022/01/05 11:24:20;;;;;;;3.65;1.63;;;;;;;;;;5094572;28;20034;-71
2022/01/05 11:26:46;;;;;;;10.18;1.73;;;;;;;;;;5095324;28;20032;-71
2022/01/05 11:29:13;;;;;;;6.13;1.70;;;;;;;;;;5094573;28;20056;-71
2022/01/05 11:31:39;;;;;;;4.35;2.08;;;;;;;;;;5092831;28;20024;-72
2022/01/05 11:34:05;;;;;;;6.53;2.05;;;;;;;;;;5092484;28;20042;-72
2022/01/05 11:36:32;;;;;;;6.72;2.05;;;;;;;;;;5093943;28;20415;-71
2022/01/05 11:38:58;;;;;;;5.72;2.20;;;;;;;;;;5075620;28;20050;-71
2022/01/05 11:41:24;;;;;;;5.30;1.80;;;;;;;;;;5093691;28;20047;-71
2022/01/05 11:43:50;;;;;;;9.40;2.25;;;;;;;;;;5074252;28;20471;-71
2022/01/05 11:46:18;;;;;;;6.93;1.75;;;;;;;;;;5073143;28;20029;-71
2022/01/05 11:49:03;;;;;;;5.97;1.92;;;;;;;;;;5073958;28;20116;-70
2022/01/05 11:51:45;;;;;;;7.57;2.28;;;;;;;;;;5073591;28;20032;-69
2022/01/05 11:54:14;;;;;;;8.45;2.33;;;;;;;;;;5075794;28;20054;-71
2022/01/05 11:56:44;;;;;;;9.18;1.40;;;;;;;;;;5094059;28;20389;-71
2022/01/05 11:59:19;;;;;;;8.98;2.10;;;;;;;;;;5073616;28;20028;-71
2022/01/05 12:01:58;;;;;;;6.18;1.67;;;;;;;;;;5092236;28;20025;-71
2022/01/05 12:04:24;;;;;;;5.13;1.70;;;;;;;;;;5091671;28;20024;-71
2022/01/05 12:06:50;;;;;;;9.73;2.10;;;;;;;;;;5091773;28;20876;-71
2022/01/05 12:09:27;;;;;;;3.75;1.60;;;;;;;;;;5091073;28;20032;-71
2022/01/05 12:11:54;;;;;;;5.82;1.98;;;;;;;;;;5091857;28;20024;-71
2022/01/05 12:14:22;;;;;;;3.22;1.83;;;;;;;;;;5091603;28;20020;-70
2022/01/05 12:17:01;;;;;;;5.78;1.77;;;;;;;;;;5092283;28;20030;-70
2022/01/05 12:19:30;;;;;;;5.25;1.90;;;;;;;;;;5092721;28;20099;-70
2022/01/05 12:21:57;;;;;;;7.97;1.58;;;;;;;;;;5093205;28;20016;-71
2022/01/05 12:24:43;;;;;;;3.55;1.45;;;;;;;;;;5092414;28;20060;-70
2022/01/05 12:27:19;;;;;;;7.28;1.75;;;;;;;;;;5074089;28;20035;-70
2022/01/05 12:29:46;;;;;;;5.40;2.28;;;;;;;;;;5092427;28;20024;-70
2022/01/05 12:32:30;;;;;;;5.50;1.70;;;;;;;;;;5092979;28;20024;-70
2022/01/05 12:34:57;;;;;;;8.23;1.92;;;;;;;;;;5091797;28;20026;-71
2022/01/05 12:37:39;;;;;;;8.10;2.05;;;;;;;;;;5092485;28;20035;-70
2022/01/05 12:40:25;;;;;;;6.25;1.88;;;;;;;;;;5093275;28;20028;-71
2022/01/05 12:43:06;;;;;;;5.32;1.75;;;;;;;;;;5091790;28;20095;-70
2022/01/05 12:45:51;;;;;;;4.20;2.50;;;;;;;;;;5092088;28;20585;-70
2022/01/05 12:48:33;;;;;;;6.38;1.20;;;;;;;;;;5073877;28;20032;-71
2022/01/05 12:54:00;;;;;;;8.18;2.03;;;;;;;;;;5091828;28;20036;-70
2022/01/05 12:56:28;;;;;;;4.50;1.50;;;;;;;;;;5090298;28;20110;-70
2022/01/05 12:58:56;;;;;;;6.57;1.60;;;;;;;;;;5091031;28;20028;-70
2022/01/05 13:01:23;;;;;;;6.50;1.60;;;;;;;;;;5091308;28;20031;-71
2022/01/05 13:03:49;;;;;;;4.20;2.03;;;;;;;;;;5090449;28;20028;-71
2022/01/05 13:06:20;;;;;;;3.95;1.95;;;;;;;;;;5091262;28;20078;-71
2022/01/05 13:08:55;;;;;;;5.00;1.60;;;;;;;;;;5091107;28;20473;-70
2022/01/05 13:11:33;;;;;;;10.55;2.75;;;;;;;;;;5089916;28;20095;-71
2022/01/05 13:14:13;;;;;;;6.00;1.58;;;;;;;;;;5091832;28;20366;-70
2022/01/05 13:16:39;;;;;;;9.07;2.15;;;;;;;;;;5092181;28;20474;-70
2022/01/05 13:19:10;;;;;;;4.53;1.58;;;;;;;;;;5091810;28;20111;-70
2022/01/05 13:21:56;;;;;;;4.75;1.67;;;;;;;;;;5092141;28;20409;-71
2022/01/05 13:24:26;;;;;;;4.70;1.50;;;;;;;;;;5089784;28;20058;-70
2022/01/05 13:27:03;;;;;;;4.63;1.75;;;;;;;;;;5092286;28;20016;-70
2022/01/05 13:29:29;;;;;;;7.63;2.20;;;;;;;;;;5091073;28;20024;-71
2022/01/05 13:31:57;;;;;;;5.32;1.13;;;;;;;;;;5091586;28;20070;-70
2022/01/05 13:34:36;;;;;;;4.22;1.50;;;;;;;;;;5090433;28;20056;-71
2022/01/05 13:37:04;;;;;;;4.53;2.03;;;;;;;;;;5072670;28;20028;-70
2022/01/05 13:39:34;;;;;;;3.05;1.45;;;;;;;;;;5091408;28;20172;-71
2022/01/05 13:42:00;;;;;;;5.17;1.97;;;;;;;;;;5091672;28;20393;-72
2022/01/05 13:44:26;;;;;;;8.05;1.60;;;;;;;;;;5090679;28;20024;-71
2022/01/05 13:46:52;;;;;;;8.60;1.95;;;;;;;;;;5073387;28;20040;-70
2022/01/05 13:49:18;;;;;;;4.78;1.65;;;;;;;;;;5091556;28;20024;-72
2022/01/05 13:52:01;;;;;;;3.72;1.45;;;;;;;;;;5091249;28;20020;-69
2022/01/05 13:54:27;;;;;;;3.17;1.35;;;;;;;;;;5090470;28;20027;-71
2022/01/05 13:56:53;;;;;;;7.00;1.70;;;;;;;;;;5091028;28;20146;-71
2022/01/05 13:59:19;;;;;;;8.50;2.20;;;;;;;;;;5095189;28;20061;-71
2022/01/05 14:01:57;;;;;;;5.20;1.63;;;;;;;;;;5077067;28;20052;-71
2022/01/05 14:04:23;;;;;;;2.72;1.05;;;;;;;;;;5076190;28;20031;-72
2022/01/05 14:06:59;;;;;;;7.22;1.70;;;;;;;;;;5094959;28;20027;-71
2022/01/05 14:09:29;;;;;;;6.53;2.05;;;;;;;;;;5076931;28;20245;-72
2022/01/05 14:11:57;;;;;;;8.45;1.73;;;;;;;;;;5095093;28;20492;-70
2022/01/05 14:14:24;;;;;;;5.38;1.60;;;;;;;;;;5094377;28;20048;-71
2022/01/05 14:16:51;;;;;;;18.02;2.13;;;;;;;;;;5076872;28;20031;-71
2022/01/05 14:19:17;;;;;;;4.43;1.52;;;;;;;;;;5095309;28;20024;-71
2022/01/05 14:21:47;;;;;;;6.25;1.73;;;;;;;;;;5095304;28;20085;-71
2022/01/05 14:24:17;;;;;;;4.95;1.33;;;;;;;;;;5095204;28;20024;-71
2022/01/05 14:26:47;;;;;;;5.03;1.70;;;;;;;;;;5095539;28;20024;-72
2022/01/05 14:29:13;;;;;;;5.25;1.80;;;;;;;;;;5095240;28;20476;-74
2022/01/05 14:31:40;;;;;;;3.97;1.50;;;;;;;;;;5095164;28;20024;-72
2022/01/05 14:34:11;;;;;;;3.25;1.70;;;;;;;;;;5094409;28;20547;-71
2022/01/05 14:36:39;;;;;;;5.20;1.80;;;;;;;;;;5094230;28;20020;-71
2022/01/05 14:39:20;;;;;;;2.92;1.65;;;;;;;;;;5095136;28;20028;-72
2022/01/05 14:41:46;;;;;;;6.63;1.83;;;;;;;;;;5094721;28;20032;-71
2022/01/05 14:44:15;;;;;;;4.18;1.52;;;;;;;;;;5094164;28;20028;-71
2022/01/05 14:46:42;;;;;;;4.15;1.67;;;;;;;;;;5094790;28;20024;-71
2022/01/05 14:49:09;;;;;;;5.50;1.88;;;;;;;;;;5094708;28;20028;-71
2022/01/05 14:51:36;;;;;;;14.00;3.40;;;;;;;;;;5094475;28;20028;-71
2022/01/05 14:54:02;;;;;;;7.78;1.90;;;;;;;;;;5093942;28;20066;-71
2022/01/05 14:56:29;;;;;;;4.32;1.80;;;;;;;;;;5094339;28;20036;-71